createdAt,value
2023-03-27T00:01:24.353Z,67696.06
2023-03-27T00:03:53.636Z,67699.03
2023-03-27T00:06:22.237Z,67692.47
2023-03-27T00:08:51.329Z,67700.19
2023-03-27T00:11:21.219Z,67679.34
2023-03-27T00:13:54.549Z,67692.63
2023-03-27T00:16:27.110Z,67689.63
2023-03-27T00:18:55.389Z,67688.53
2023-03-27T00:21:23.200Z,67690.38
2023-03-27T00:23:50.604Z,67690.59
2023-03-27T00:26:18.481Z,67686.28
2023-03-27T00:28:46.341Z,67681.41
2023-03-27T00:31:16.260Z,67692.25
2023-03-27T00:33:43.764Z,67693.25
2023-03-27T00:36:11.700Z,67709.78
2023-03-27T00:38:43.881Z,67724.44
2023-03-27T00:41:12.841Z,67618.38
2023-03-27T00:43:44.632Z,67591.69
2023-03-27T00:46:15.859Z,67580.25
2023-03-27T00:48:48.224Z,67573.84
2023-03-27T00:51:17.314Z,67552.84
2023-03-27T00:53:46.833Z,67552.06
2023-03-27T00:56:16.750Z,67511.88
2023-03-27T00:58:51.484Z,67495.16
2023-03-27T01:01:22.151Z,67491.59
2023-03-27T01:03:51.825Z,67482.00
2023-03-27T01:06:21.773Z,67464.00
2023-03-27T01:08:49.513Z,67433.78
2023-03-27T01:11:37.225Z,67411.81
2023-03-27T01:14:33.906Z,67389.31
2023-03-27T01:17:18.058Z,67356.53
2023-03-27T01:20:07.428Z,67349.16
2023-03-27T01:23:13.347Z,67336.78
2023-03-27T01:26:07.683Z,67319.53
2023-03-27T01:28:41.431Z,67306.47
2023-03-27T01:31:47.813Z,67299.63
2023-03-27T01:34:33.681Z,67291.00
2023-03-27T01:37:48.024Z,67282.75
2023-03-27T01:40:20.164Z,67272.66
2023-03-27T01:43:08.091Z,67263.31
2023-03-27T01:45:44.758Z,67253.41
2023-03-27T01:48:23.298Z,67260.84
2023-03-27T01:50:59.768Z,67261.63
2023-03-27T01:53:35.064Z,67265.00
2023-03-27T01:56:37.816Z,67263.66
2023-03-27T01:59:20.323Z,67258.03
2023-03-27T02:01:56.469Z,67259.16
2023-03-27T02:08:19.840Z,67246.22
2023-03-27T02:10:54.449Z,67251.28
2023-03-27T02:13:51.636Z,67236.88
2023-03-27T02:16:25.056Z,67237.66
2023-03-27T02:18:59.267Z,67239.25
2023-03-27T02:21:26.974Z,67246.44
2023-03-27T02:23:54.523Z,67259.16
2023-03-27T02:26:22.364Z,67260.84
2023-03-27T02:29:01.842Z,67256.00
2023-03-27T02:32:16.336Z,67263.66
2023-03-27T02:35:03.111Z,67259.16
2023-03-27T02:37:40.397Z,67251.50
2023-03-27T02:40:49.716Z,67254.66
2023-03-27T02:43:56.145Z,67219.59
2023-03-27T02:46:55.554Z,67266.13
2023-03-27T02:49:32.531Z,67268.72
2023-03-27T02:52:18.852Z,67273.44
2023-03-27T02:54:53.281Z,67270.41
2023-03-27T02:57:25.272Z,67260.50
2023-03-27T03:00:20.572Z,67260.28
2023-03-27T03:03:07.351Z,67252.63
2023-03-27T03:05:37.367Z,67251.84
2023-03-27T03:08:06.064Z,67210.06
2023-03-27T03:10:33.712Z,67251.16
2023-03-27T03:13:01.431Z,67249.81
2023-03-27T03:15:28.816Z,67256.78
2023-03-27T03:17:56.563Z,67262.31
2023-03-27T03:20:24.042Z,67257.09
2023-03-27T03:22:51.399Z,67260.84
2023-03-27T03:25:19.992Z,67261.41
2023-03-27T03:27:47.538Z,67256.56
2023-03-27T03:30:17.504Z,67217.91
2023-03-27T03:33:07.680Z,67269.63
2023-03-27T03:35:39.103Z,67268.34
2023-03-27T03:38:26.623Z,67272.28
2023-03-27T03:40:55.925Z,67272.50
2023-03-27T03:43:26.196Z,67281.28
2023-03-27T03:45:55.607Z,67279.06
2023-03-27T03:48:23.947Z,67283.19
2023-03-27T03:50:52.023Z,67290.84
2023-03-27T03:53:21.271Z,67296.84
2023-03-27T03:55:53.537Z,67303.56
2023-03-27T03:58:20.964Z,67250.50
2023-03-27T04:01:05.301Z,67299.44
2023-03-27T04:03:49.970Z,67292.31
2023-03-27T04:06:21.196Z,67287.47
2023-03-27T04:08:48.894Z,67287.84
2023-03-27T04:11:46.101Z,67282.44
2023-03-27T04:14:35.509Z,67282.75
2023-03-27T04:17:09.889Z,67280.16
2023-03-27T04:19:37.501Z,67286.16
2023-03-27T04:22:07.236Z,67281.66
2023-03-27T04:24:37.421Z,67288.19
2023-03-27T04:27:05.773Z,67278.50
2023-03-27T04:29:43.593Z,67232.53
2023-03-27T04:32:31.563Z,67278.84
2023-03-27T04:35:20.367Z,67271.19
2023-03-27T04:37:57.904Z,67270.97
2023-03-27T04:40:39.941Z,67265.19
2023-03-27T04:43:08.777Z,67264.41
2023-03-27T04:45:36.650Z,67263.88
2023-03-27T04:48:05.536Z,67219.59
2023-03-27T04:50:33.337Z,67264.78
2023-03-27T04:53:02.196Z,67266.25
2023-03-27T04:55:38.104Z,67261.03
2023-03-27T04:58:05.716Z,67259.16
2023-03-27T05:00:34.658Z,67258.81
2023-03-27T05:03:24.064Z,67253.41
2023-03-27T05:06:08.535Z,67258.03
2023-03-27T05:08:37.705Z,67253.75
2023-03-27T05:11:05.619Z,67250.94
2023-03-27T05:13:41.447Z,67248.13
2023-03-27T05:16:10.555Z,67205.00
2023-03-27T05:18:45.227Z,67249.81
2023-03-27T05:21:13.844Z,67247.91
2023-03-27T05:23:44.583Z,67249.03
2023-03-27T05:26:12.260Z,67244.56
2023-03-27T05:28:55.795Z,67241.94
2023-03-27T05:31:23.718Z,67247.00
2023-03-27T05:33:59.653Z,67248.25
2023-03-27T05:36:31.028Z,67246.78
2023-03-27T05:38:59.263Z,67245.31
2023-03-27T05:41:46.909Z,67245.66
2023-03-27T05:44:22.457Z,67248.69
2023-03-27T05:46:51.123Z,67247.56
2023-03-27T05:49:24.923Z,67246.44
2023-03-27T05:51:58.166Z,67244.94
2023-03-27T05:54:26.154Z,67242.16
2023-03-27T05:56:59.045Z,67249.03
2023-03-27T05:59:27.073Z,67250.72
2023-03-27T06:02:01.172Z,67246.44
2023-03-27T06:04:42.427Z,67250.16
2023-03-27T06:07:15.041Z,67252.41
2023-03-27T06:09:43.316Z,67244.03
2023-03-27T06:12:30.133Z,67250.38
2023-03-27T06:15:09.952Z,67258.25
2023-03-27T06:17:48.135Z,67259.72
2023-03-27T06:23:47.213Z,67266.47
2023-03-27T06:26:26.143Z,67261.63
2023-03-27T06:28:57.346Z,67266.88
2023-03-27T06:31:34.053Z,67281.84
2023-03-27T06:34:09.563Z,67279.59
2023-03-27T06:36:45.672Z,67275.31
2023-03-27T06:39:14.299Z,67285.78
2023-03-27T06:41:49.380Z,67308.66
2023-03-27T06:44:44.655Z,67309.44
2023-03-27T06:47:36.336Z,67292.53
2023-03-27T06:50:35.569Z,67297.03
2023-03-27T06:53:05.891Z,67294.00
2023-03-27T06:55:45.231Z,67276.81
2023-03-27T06:58:13.622Z,67263.88
2023-03-27T07:00:41.718Z,67272.66
2023-03-27T07:03:34.485Z,67274.91
2023-03-27T07:06:05.804Z,67277.34
2023-03-27T07:08:47.763Z,67277.00
2023-03-27T07:11:19.630Z,67276.03
2023-03-27T07:13:59.948Z,67277.16
2023-03-27T07:16:29.102Z,67275.47
2023-03-27T07:18:59.439Z,67252.63
2023-03-27T07:21:29.419Z,67255.78
2023-03-27T07:24:02.743Z,67266.47
2023-03-27T07:26:36.849Z,67261.41
2023-03-27T07:29:10.940Z,67209.50
2023-03-27T07:31:55.671Z,67259.72
2023-03-27T07:34:44.227Z,67274.91
2023-03-27T07:37:17.433Z,67284.25
2023-03-27T07:40:36.989Z,67288.25
2023-03-27T07:43:37.022Z,67304.34
2023-03-27T07:46:06.623Z,67298.88
2023-03-27T07:48:36.034Z,67268.00
2023-03-27T07:51:13.448Z,67265.34
2023-03-27T07:53:41.863Z,67282.22
2023-03-27T07:56:15.690Z,67314.28
2023-03-27T07:58:47.236Z,67315.38
2023-03-27T08:01:20.025Z,67338.13
2023-03-27T08:03:49.012Z,67381.06
2023-03-27T08:06:19.058Z,67388.19
2023-03-27T08:08:47.460Z,67364.34
2023-03-27T08:11:27.305Z,67347.69
2023-03-27T08:13:58.523Z,67410.50
2023-03-27T08:16:29.990Z,67436.97
2023-03-27T08:19:01.413Z,67543.06
2023-03-27T08:21:34.348Z,67590.03
2023-03-27T08:24:04.844Z,67521.66
2023-03-27T08:26:35.421Z,67469.03
2023-03-27T08:29:07.413Z,67388.19
2023-03-27T08:31:35.700Z,67362.09
2023-03-27T08:34:05.711Z,67312.34
2023-03-27T08:36:47.322Z,67317.84
2023-03-27T08:39:16.314Z,67332.84
2023-03-27T08:42:00.556Z,67436.03
2023-03-27T08:44:37.010Z,67403.94
2023-03-27T08:47:43.427Z,67355.13
2023-03-27T08:50:34.293Z,67296.84
2023-03-27T08:53:40.562Z,67286.56
2023-03-27T08:56:14.729Z,67406.19
2023-03-27T08:58:44.606Z,67518.06
2023-03-27T09:01:46.989Z,67599.56
2023-03-27T09:04:26.536Z,67672.94
2023-03-27T09:07:34.416Z,67710.16
2023-03-27T09:10:37.062Z,67600.34
2023-03-27T09:13:34.084Z,67511.28
2023-03-27T09:16:13.067Z,67402.81
2023-03-27T09:19:02.262Z,67389.09
2023-03-27T09:21:46.333Z,67397.53
2023-03-27T09:24:33.064Z,67395.28
2023-03-27T09:27:25.059Z,67407.13
2023-03-27T09:30:18.730Z,67498.34
2023-03-27T09:32:58.340Z,67583.44
2023-03-27T09:35:25.870Z,67597.53
2023-03-27T09:38:01.303Z,67587.56
2023-03-27T09:40:43.822Z,67634.38
2023-03-27T09:43:54.524Z,67676.47
2023-03-27T09:46:24.855Z,67686.97
2023-03-27T09:49:09.749Z,67626.69
2023-03-27T09:51:42.793Z,67573.06
2023-03-27T09:54:29.130Z,67526.16
2023-03-27T09:56:58.038Z,67531.94
2023-03-27T09:59:34.804Z,67516.94
2023-03-27T10:02:38.173Z,67464.41
2023-03-27T10:05:15.738Z,67400.16
2023-03-27T10:07:46.133Z,67393.03
2023-03-27T10:10:45.976Z,67368.69
2023-03-27T10:13:48.159Z,67441.25
2023-03-27T10:16:22.520Z,67577.44
2023-03-27T10:19:06.701Z,67670.13
2023-03-27T10:21:43.993Z,67591.72
2023-03-27T10:24:20.980Z,67510.19
2023-03-27T10:27:12.405Z,67576.66
2023-03-27T10:29:59.204Z,67572.94
2023-03-27T10:32:47.630Z,67544.75
2023-03-27T10:35:49.123Z,67534.06
2023-03-27T10:38:22.796Z,67492.00
2023-03-27T10:41:28.068Z,67547.56
2023-03-27T10:43:57.681Z,67633.63
2023-03-27T10:46:29.034Z,67699.22
2023-03-27T10:49:17.997Z,67763.94
2023-03-27T10:51:52.877Z,67666.31
2023-03-27T10:54:51.543Z,67547.34
2023-03-27T10:57:22.487Z,67544.19
2023-03-27T11:00:00.673Z,67595.81
2023-03-27T11:02:57.738Z,67597.72
2023-03-27T11:05:37.668Z,67538.91
2023-03-27T11:08:15.581Z,67494.97
2023-03-27T11:10:45.658Z,67468.13
2023-03-27T11:13:28.398Z,67505.31
2023-03-27T11:16:10.145Z,67493.84
2023-03-27T11:19:10.450Z,67483.69
2023-03-27T11:22:35.421Z,67459.00
2023-03-27T11:25:19.999Z,67502.06
2023-03-27T11:28:46.639Z,67521.22
2023-03-27T11:31:34.453Z,67708.63
2023-03-27T11:34:38.054Z,67684.56
2023-03-27T11:37:30.124Z,67734.22
2023-03-27T11:40:20.339Z,67721.41
2023-03-27T11:42:51.372Z,67628.91
2023-03-27T11:45:26.074Z,67542.50
2023-03-27T11:48:02.290Z,67524.81
2023-03-27T11:50:50.589Z,67500.78
2023-03-27T11:53:28.010Z,67494.19
2023-03-27T11:56:52.845Z,67634.75
2023-03-27T11:59:50.239Z,67681.56
2023-03-27T12:03:02.408Z,67665.19
2023-03-27T12:05:41.226Z,67690.78
2023-03-27T12:08:21.837Z,67724.44
2023-03-27T12:10:54.791Z,67739.31
2023-03-27T12:13:58.252Z,67736.69
2023-03-27T12:16:58.020Z,67756.03
2023-03-27T12:19:34.246Z,67755.47
2023-03-27T12:22:57.729Z,67792.94
2023-03-27T12:25:42.219Z,67796.69
2023-03-27T12:28:53.121Z,67756.78
2023-03-27T12:31:53.201Z,67797.09
2023-03-27T12:34:52.688Z,67795.00
2023-03-27T12:37:26.639Z,67798.03
2023-03-27T12:40:00.430Z,67804.22
2023-03-27T12:42:52.119Z,67770.91
2023-03-27T12:45:24.777Z,67846.38
2023-03-27T12:48:10.061Z,67843.00
2023-03-27T12:50:44.231Z,67749.44
2023-03-27T12:53:35.088Z,67699.03
2023-03-27T12:56:16.330Z,67675.00
2023-03-27T12:58:51.588Z,67685.69
2023-03-27T13:01:51.577Z,67734.22
2023-03-27T13:04:22.843Z,67701.50
2023-03-27T13:07:06.648Z,67646.00
2023-03-27T13:10:23.603Z,67543.41
2023-03-27T13:13:00.786Z,67530.44
2023-03-27T13:15:52.027Z,67603.00
2023-03-27T13:18:56.360Z,67708.13
2023-03-27T13:21:52.761Z,67742.13
2023-03-27T13:24:23.277Z,67761.13
2023-03-27T13:27:35.087Z,67729.16
2023-03-27T13:30:05.123Z,67771.47
2023-03-27T13:33:16.529Z,67770.16
2023-03-27T13:36:11.155Z,67700.19
2023-03-27T13:39:00.150Z,67630.84
2023-03-27T13:41:44.453Z,67604.50
2023-03-27T13:44:36.335Z,67572.72
2023-03-27T13:47:13.320Z,67532.34
2023-03-27T13:50:14.495Z,67460.97
2023-03-27T13:52:53.874Z,67415.00
2023-03-27T13:56:10.118Z,67396.25
2023-03-27T13:59:49.807Z,67407.88
2023-03-27T14:02:41.823Z,67421.19
2023-03-27T14:05:27.461Z,67403.72
2023-03-27T14:08:06.886Z,67352.88
2023-03-27T14:11:42.191Z,67391.69
2023-03-27T14:14:25.751Z,67517.69
2023-03-27T14:17:03.105Z,67507.56
2023-03-27T14:19:54.573Z,67467.56
2023-03-27T14:22:46.076Z,67444.28
2023-03-27T14:25:21.304Z,67402.81
2023-03-27T14:27:58.376Z,67305.69
2023-03-27T14:30:32.810Z,67317.06
2023-03-27T14:33:29.925Z,67410.91
2023-03-27T14:36:05.618Z,67419.50
2023-03-27T14:38:37.347Z,67449.34
2023-03-27T14:41:18.920Z,67439.75
2023-03-27T14:44:04.003Z,67430.75
2023-03-27T14:46:45.235Z,67430.56
2023-03-27T14:49:19.618Z,67371.97
2023-03-27T14:51:55.256Z,67426.81
2023-03-27T14:54:54.968Z,67436.03
2023-03-27T14:57:27.608Z,67441.81
2023-03-27T14:59:59.600Z,67398.22
2023-03-27T15:02:35.946Z,67406.56
2023-03-27T15:05:17.606Z,67409.94
2023-03-27T15:07:52.078Z,67406.56
2023-03-27T15:10:31.891Z,67384.59
2023-03-27T15:13:18.538Z,67354.78
2023-03-27T15:15:55.043Z,67382.56
2023-03-27T15:18:31.494Z,67408.25
2023-03-27T15:21:19.717Z,67413.88
2023-03-27T15:24:00.966Z,67392.91
2023-03-27T15:26:32.273Z,67404.50
2023-03-27T15:29:04.290Z,67432.25
2023-03-27T15:31:33.487Z,67452.50
2023-03-27T15:34:13.036Z,67453.28
2023-03-27T15:36:43.191Z,67457.44
2023-03-27T15:39:21.376Z,67468.69
2023-03-27T15:41:57.678Z,67478.63
2023-03-27T15:44:30.718Z,67480.31
2023-03-27T15:47:00.695Z,67460.06
2023-03-27T15:49:34.761Z,67485.59
2023-03-27T15:52:31.048Z,67489.53
2023-03-27T15:55:01.648Z,67462.66
2023-03-27T15:57:32.275Z,67444.84
2023-03-27T16:00:08.628Z,67439.41
2023-03-27T16:02:40.888Z,67450.25
2023-03-27T16:05:09.484Z,67464.75
2023-03-27T16:07:47.291Z,67469.25
2023-03-27T16:10:31.228Z,67466.78
2023-03-27T16:13:03.020Z,67430.75
2023-03-27T16:15:41.853Z,67416.53
2023-03-27T16:18:24.292Z,67424.56
2023-03-27T16:20:52.559Z,67437.72
2023-03-27T16:23:19.917Z,67437.94
2023-03-27T16:25:47.640Z,67437.72
2023-03-27T16:28:15.059Z,67434.34
2023-03-27T16:30:42.553Z,67416.13
2023-03-27T16:34:06.263Z,67421.75
2023-03-27T16:36:33.841Z,67426.25
2023-03-27T16:39:01.961Z,67418.94
2023-03-27T16:41:29.984Z,67409.03
2023-03-27T16:44:07.093Z,67411.06
2023-03-27T16:46:34.984Z,67407.66
2023-03-27T16:49:02.501Z,67386.13
2023-03-27T16:51:31.256Z,67379.00
2023-03-27T16:53:58.788Z,67364.53
2023-03-27T16:56:26.412Z,67370.34
2023-03-27T16:58:57.319Z,67357.81
2023-03-27T17:01:26.263Z,67356.84
2023-03-27T17:03:56.559Z,67357.38
2023-03-27T17:06:23.975Z,67311.78
2023-03-27T17:08:55.829Z,67371.66
2023-03-27T17:11:23.728Z,67321.00
2023-03-27T17:13:51.162Z,67217.56
2023-03-27T17:16:18.799Z,67182.16
2023-03-27T17:18:46.411Z,67114.56
2023-03-27T17:21:13.912Z,67142.63
2023-03-27T17:23:43.658Z,67121.47
2023-03-27T17:26:15.966Z,67115.66
2023-03-27T17:28:43.735Z,67101.47
2023-03-27T17:31:11.277Z,67110.81
2023-03-27T17:33:38.726Z,67119.22
2023-03-27T17:36:11.466Z,67123.16
2023-03-27T17:38:40.386Z,67125.41
2023-03-27T17:41:08.750Z,67069.69
2023-03-27T17:43:39.578Z,67105.19
2023-03-27T17:46:12.150Z,67051.50
2023-03-27T17:48:41.235Z,67088.00
2023-03-27T17:51:10.185Z,67086.09
2023-03-27T17:53:39.302Z,67079.34
2023-03-27T17:56:07.505Z,67073.19
2023-03-27T17:58:37.640Z,67019.94
2023-03-27T18:01:19.612Z,67055.66
2023-03-27T18:03:48.086Z,67054.09
2023-03-27T18:06:19.988Z,67041.19
2023-03-27T18:08:47.551Z,67020.28
2023-03-27T18:11:16.353Z,67019.88
2023-03-27T18:13:44.043Z,67006.63
2023-03-27T18:16:12.266Z,67021.00
2023-03-27T18:18:40.552Z,67026.59
2023-03-27T18:21:09.185Z,67026.06
2023-03-27T18:23:45.674Z,66977.09
2023-03-27T18:26:14.859Z,67023.25
2023-03-27T18:28:42.486Z,67013.91
2023-03-27T18:31:15.474Z,67013.34
2023-03-27T18:33:42.855Z,66959.72
2023-03-27T18:36:12.065Z,66996.50
2023-03-27T18:38:42.179Z,66995.94
2023-03-27T18:41:10.308Z,66948.50
2023-03-27T18:43:38.251Z,66949.63
2023-03-27T18:46:06.452Z,67000.78
2023-03-27T18:48:34.779Z,66995.75
2023-03-27T18:51:04.534Z,66995.75
2023-03-27T18:53:31.923Z,67001.38
2023-03-27T18:56:00.882Z,66952.44
2023-03-27T18:58:29.876Z,66999.09
2023-03-27T19:00:58.251Z,66998.53
2023-03-27T19:03:31.607Z,66994.25
2023-03-27T19:06:04.303Z,66994.25
2023-03-27T19:08:33.380Z,66999.09
2023-03-27T19:11:08.354Z,66952.44
2023-03-27T19:13:55.776Z,67002.69
2023-03-27T19:16:30.907Z,67004.94
2023-03-27T19:19:33.804Z,67012.00
2023-03-27T19:22:13.785Z,67012.91
2023-03-27T19:24:49.299Z,67019.31
2023-03-27T19:27:24.151Z,67021.56
2023-03-27T19:29:53.397Z,67033.13
2023-03-27T19:32:21.397Z,66993.94
2023-03-27T19:34:49.060Z,67044.22
2023-03-27T19:37:16.577Z,67051.84
2023-03-27T19:39:43.938Z,67048.34
2023-03-27T19:42:11.807Z,67056.34
2023-03-27T19:44:39.446Z,67054.31
2023-03-27T19:47:07.853Z,67059.16
2023-03-27T19:49:38.438Z,67055.78
2023-03-27T19:52:26.347Z,67054.69
2023-03-27T19:54:54.229Z,67054.69
2023-03-27T19:57:24.475Z,67045.91
2023-03-27T19:59:52.474Z,67053.00
2023-03-27T20:02:19.922Z,67046.25
2023-03-27T20:04:49.593Z,67047.94
2023-03-27T20:07:17.156Z,67019.53
2023-03-27T20:09:44.647Z,67062.75
2023-03-27T20:12:12.525Z,67018.06
2023-03-27T20:14:39.933Z,67064.97
2023-03-27T20:17:12.281Z,67072.63
2023-03-27T20:19:49.222Z,67069.25
2023-03-27T20:22:21.020Z,67025.34
2023-03-27T20:24:49.164Z,67066.09
2023-03-27T20:27:19.971Z,67067.78
2023-03-27T20:29:49.347Z,67069.47
2023-03-27T20:32:16.736Z,67072.63
2023-03-27T20:34:49.020Z,67066.09
2023-03-27T20:37:16.748Z,67073.75
2023-03-27T20:40:11.632Z,67068.16
2023-03-27T20:42:39.183Z,67072.84
2023-03-27T20:45:08.126Z,67070.59
2023-03-27T20:47:39.302Z,67072.28
2023-03-27T20:50:07.522Z,67074.31
2023-03-27T20:52:35.259Z,67067.78
2023-03-27T20:55:02.714Z,67071.50
2023-03-27T20:57:31.047Z,67073.75
2023-03-27T20:59:58.531Z,67076.22
2023-03-27T21:02:26.199Z,67083.88
2023-03-27T21:04:53.460Z,67086.88
2023-03-27T21:07:20.734Z,67097.53
2023-03-27T21:09:48.383Z,67100.72
2023-03-27T21:12:16.144Z,67108.00
2023-03-27T21:14:43.556Z,67105.06
2023-03-27T21:17:12.645Z,67109.00
2023-03-27T21:19:39.989Z,67110.47
2023-03-27T21:22:07.602Z,67105.75
2023-03-27T21:24:35.084Z,67103.94
2023-03-27T21:27:02.465Z,67100.91
2023-03-27T21:29:29.849Z,67093.97
2023-03-27T21:31:57.638Z,67091.38
2023-03-27T21:34:24.941Z,67102.03
2023-03-27T21:36:52.187Z,67104.28
2023-03-27T21:39:19.820Z,67112.72
2023-03-27T21:41:47.194Z,67113.25
2023-03-27T21:44:15.600Z,67114.75
2023-03-27T21:46:42.932Z,67069.09
2023-03-27T21:49:13.522Z,67117.19
2023-03-27T21:51:40.906Z,67078.09
2023-03-27T21:54:08.573Z,67087.06
2023-03-27T21:56:35.995Z,67141.16
2023-03-27T21:59:03.665Z,67147.53
2023-03-27T22:01:38.842Z,67146.78
2023-03-27T22:04:11.215Z,67149.56
2023-03-27T22:06:39.475Z,67153.50
2023-03-27T22:09:09.024Z,67151.25
2023-03-27T22:11:37.532Z,67137.78
2023-03-27T22:14:05.692Z,67089.53
2023-03-27T22:16:34.139Z,67133.13
2023-03-27T22:19:01.787Z,67129.13
2023-03-27T22:21:30.554Z,67131.03
2023-03-27T22:23:58.968Z,67129.56
2023-03-27T22:26:30.285Z,67127.88
2023-03-27T22:28:57.751Z,67129.91
2023-03-27T22:31:28.383Z,67135.72
2023-03-27T22:33:56.231Z,67133.28
2023-03-27T22:36:23.554Z,67120.56
2023-03-27T22:38:50.884Z,67127.31
2023-03-27T22:41:18.620Z,67126.91
2023-03-27T22:43:47.901Z,67125.28
2023-03-27T22:46:20.134Z,67132.50
2023-03-27T22:48:47.990Z,67114.94
2023-03-27T22:51:15.403Z,67118.31
2023-03-27T22:53:42.699Z,67066.50
2023-03-27T22:56:10.151Z,67113.25
2023-03-27T22:58:37.850Z,67119.22
2023-03-27T23:01:06.223Z,67118.88
2023-03-27T23:03:33.728Z,67113.06
2023-03-27T23:06:01.472Z,67116.63
2023-03-27T23:08:29.689Z,67122.06
2023-03-27T23:11:05.055Z,67119.78
2023-03-27T23:13:34.844Z,67120.91
2023-03-27T23:16:02.396Z,67124.28
2023-03-27T23:18:29.972Z,67134.41
2023-03-27T23:20:59.840Z,67133.84
2023-03-27T23:23:29.121Z,67132.94
2023-03-27T23:25:57.937Z,67137.78
2023-03-27T23:28:26.520Z,67136.09
2023-03-27T23:30:55.686Z,67140.78
2023-03-27T23:33:25.342Z,67140.56
2023-03-27T23:35:54.783Z,67139.66
2023-03-27T23:38:22.146Z,67144.50
2023-03-27T23:40:57.300Z,67141.91
2023-03-27T23:43:26.759Z,67096.63
2023-03-27T23:45:56.045Z,67145.09
2023-03-27T23:48:23.642Z,67137.97
2023-03-27T23:50:52.118Z,67140.78
2023-03-27T23:53:21.532Z,67141.72
2023-03-27T23:55:49.032Z,67141.00
2023-03-27T23:58:16.449Z,67150.13
